Time;durP1;ratioP1;P1;durP2;ratioP2;P2;SDS_P1;SDS_P2;PMS_P1;PMS_P2;Temp;Humidity;BMP_temperature;BMP_pressure;BME280_temperature;BME280_humidity;BME280_pressure;Samples;Min_cycle;Max_cycle;Signal;HPM_P1;HPM_P2
2021/12/08 00:00:06;;;;;;;55.53;12.77;;;;;;;0.76;100.00;96833.88;5123387;28;20678;-63
2021/12/08 00:02:33;;;;;;;51.17;13.03;;;;;;;0.69;100.00;96833.16;5121916;28;20612;-62
2021/12/08 00:05:00;;;;;;;47.33;13.33;;;;;;;0.69;100.00;96827.09;5120320;28;20609;-63
2021/12/08 00:07:28;;;;;;;40.47;14.07;;;;;;;0.81;100.00;96830.53;5120894;28;20713;-63
2021/12/08 00:10:04;;;;;;;28.70;11.40;;;;;;;0.68;100.00;96823.66;5123850;28;20634;-63
2021/12/08 00:15:15;;;;;;;26.07;11.13;;;;;;;0.68;100.00;96810.53;5119990;28;20608;-63
2021/12/08 00:17:42;;;;;;;46.57;11.93;;;;;;;0.72;100.00;96806.44;5123029;28;20614;-64
2021/12/08 00:20:10;;;;;;;68.30;11.00;;;;;;;0.72;100.00;96801.19;5131186;28;20633;-63
2021/12/08 00:22:38;;;;;;;57.17;13.27;;;;;;;0.73;100.00;96792.28;5120981;28;20671;-62
2021/12/08 00:25:05;;;;;;;23.80;9.70;;;;;;;0.49;100.00;96790.66;5119880;28;20606;-63
2021/12/08 00:27:32;;;;;;;40.67;11.50;;;;;;;0.51;100.00;96791.22;5121265;28;20609;-63
2021/12/08 00:29:58;;;;;;;69.77;12.17;;;;;;;0.50;100.00;96790.41;5123287;28;20604;-62
2021/12/08 00:32:29;;;;;;;38.53;13.37;;;;;;;0.42;100.00;96782.88;5122529;28;20597;-62
2021/12/08 00:34:56;;;;;;;46.47;11.80;;;;;;;0.61;100.00;96780.97;5119479;28;20625;-63
2021/12/08 00:37:23;;;;;;;62.97;13.13;;;;;;;0.47;100.00;96780.38;5119710;28;20613;-64
2021/12/08 00:39:52;;;;;;;26.43;9.23;;;;;;;0.53;100.00;96779.47;5123331;28;20608;-64
2021/12/08 00:42:19;;;;;;;75.80;13.53;;;;;;;0.46;100.00;96775.34;5123112;28;20609;-63
2021/12/08 00:44:46;;;;;;;36.47;11.07;;;;;;;0.60;100.00;96776.72;5111026;28;20625;-63
2021/12/08 00:47:13;;;;;;;49.00;12.50;;;;;;;0.68;100.00;96781.63;5111020;28;20637;-63
2021/12/08 00:49:40;;;;;;;25.57;9.37;;;;;;;0.68;100.00;96784.25;5121397;28;20829;-63
2021/12/08 00:52:08;;;;;;;31.93;10.43;;;;;;;0.68;100.00;96784.25;5122950;28;20620;-63
2021/12/08 00:54:35;;;;;;;47.07;11.87;;;;;;;0.57;100.00;96769.31;5120772;28;20592;-63
2021/12/08 00:57:03;;;;;;;33.57;10.83;;;;;;;0.63;100.00;96776.28;5119400;28;20635;-63
2021/12/08 00:59:30;;;;;;;76.20;12.77;;;;;;;0.76;100.00;96791.81;5120399;28;20613;-63
2021/12/08 01:02:02;;;;;;;38.70;8.20;;;;;;;0.67;100.00;96782.69;5122656;28;20597;-63
2021/12/08 01:04:29;;;;;;;45.87;10.53;;;;;;;0.75;100.00;96781.53;5121202;28;20685;-63
2021/12/08 01:06:55;;;;;;;27.10;8.33;;;;;;;0.86;100.00;96786.81;5119034;28;20662;-63
2021/12/08 01:09:22;;;;;;;37.50;9.77;;;;;;;0.90;100.00;96787.13;5118985;28;20601;-63
2021/12/08 01:11:49;;;;;;;40.80;9.20;;;;;;;0.60;100.00;96787.22;5122438;28;20600;-62
2021/12/08 01:14:18;;;;;;;45.10;9.60;;;;;;;0.48;100.00;96784.59;5122225;28;20609;-63
2021/12/08 01:16:45;;;;;;;31.60;7.63;;;;;;;0.39;100.00;96774.66;5118949;28;20593;-63
2021/12/08 01:19:12;;;;;;;41.30;9.30;;;;;;;0.33;100.00;96771.09;5125228;28;20608;-63
2021/12/08 01:21:39;;;;;;;47.20;8.17;;;;;;;0.33;100.00;96772.94;5122200;28;20602;-63
2021/12/08 01:24:06;;;;;;;41.13;7.50;;;;;;;0.39;100.00;96766.78;5122310;28;20580;-63
2021/12/08 01:26:32;;;;;;;48.53;8.57;;;;;;;0.20;100.00;96765.25;5120274;28;20640;-62
2021/12/08 01:28:59;;;;;;;51.40;10.03;;;;;;;0.25;100.00;96763.53;5118712;28;20662;-62
2021/12/08 01:31:28;;;;;;;29.13;7.10;;;;;;;0.27;100.00;96758.88;5119038;28;20670;-63
2021/12/08 01:33:56;;;;;;;37.53;10.33;;;;;;;0.26;100.00;96759.09;5121982;28;20611;-63
2021/12/08 01:36:22;;;;;;;57.27;10.50;;;;;;;0.36;100.00;96754.09;5121282;28;20628;-62
2021/12/08 01:38:49;;;;;;;36.43;9.03;;;;;;;0.35;100.00;96752.47;5118338;28;20693;-63
2021/12/08 01:41:17;;;;;;;37.30;9.40;;;;;;;0.20;100.00;96737.19;5118203;28;20605;-62
2021/12/08 01:45:57;;;;;;;60.77;11.43;;;;;;;0.19;100.00;96717.19;5121401;28;21442;-63
2021/12/08 01:46:31;;;;;;;41.93;11.77;;;;;;;0.22;100.00;96732.50;5120117;28;20658;-63
2021/12/08 01:48:58;;;;;;;48.13;10.70;;;;;;;0.25;100.00;96720.75;5122864;28;20608;-62
2021/12/08 01:51:25;;;;;;;45.67;9.60;;;;;;;0.08;100.00;96715.34;5121439;28;20601;-62
2021/12/08 01:53:54;;;;;;;43.90;9.73;;;;;;;0.03;100.00;96706.56;5121715;28;20628;-63
2021/12/08 01:56:23;;;;;;;38.07;10.40;;;;;;;0.08;100.00;96706.69;5121698;28;20589;-63
2021/12/08 01:58:50;;;;;;;67.27;10.97;;;;;;;0.23;100.00;96696.53;5118227;28;20609;-63
2021/12/08 02:01:20;;;;;;;27.63;10.37;;;;;;;0.14;100.00;96703.97;5118296;28;20601;-63
2021/12/08 02:03:48;;;;;;;47.07;10.57;;;;;;;0.28;100.00;96713.22;5109746;28;20625;-62
2021/12/08 02:06:18;;;;;;;39.20;10.30;;;;;;;0.31;100.00;96710.13;5109539;28;20675;-62
2021/12/08 02:08:46;;;;;;;38.30;8.27;;;;;;;0.18;100.00;96702.47;5109711;28;20608;-62
2021/12/08 02:11:13;;;;;;;22.97;8.27;;;;;;;0.08;100.00;96686.50;5109715;28;20619;-62
2021/12/08 02:13:41;;;;;;;47.17;8.50;;;;;;;0.07;100.00;96674.38;5109539;28;20635;-64
2021/12/08 02:16:12;;;;;;;69.97;12.20;;;;;;;0.03;100.00;96657.50;5109586;28;20644;-63
2021/12/08 02:18:39;;;;;;;23.93;9.10;;;;;;;0.13;100.00;96657.72;5111453;28;21375;-63
2021/12/08 02:21:21;;;;;;;17.90;7.47;;;;;;;0.17;100.00;96668.56;5123728;28;21483;-63
2021/12/08 02:23:48;;;;;;;54.70;10.40;;;;;;;0.34;100.00;96674.75;5113583;28;20673;-62
2021/12/08 02:26:15;;;;;;;42.97;9.40;;;;;;;0.37;100.00;96677.69;5113775;28;20635;-63
2021/12/08 02:28:41;;;;;;;80.37;10.80;;;;;;;0.41;100.00;96685.94;5113804;28;20595;-63
2021/12/08 02:31:12;;;;;;;21.63;6.83;;;;;;;0.62;100.00;96685.34;5113579;28;20608;-63
2021/12/08 02:47:44;;;;;;;22.73;8.53;;;;;;;0.50;100.00;96672.22;5123118;28;20700;-63
2021/12/08 02:50:11;;;;;;;32.77;7.83;;;;;;;0.48;100.00;96689.25;5133010;28;20630;-63
2021/12/08 02:52:39;;;;;;;42.90;7.93;;;;;;;0.57;100.00;96681.81;5122455;28;20637;-62
2021/12/08 02:55:08;;;;;;;30.30;7.77;;;;;;;0.63;100.00;96686.94;5121626;28;21235;-63
2021/12/08 02:57:35;;;;;;;33.53;6.73;;;;;;;0.45;100.00;96681.81;5123166;28;20666;-63
2021/12/08 03:00:05;;;;;;;34.17;8.00;;;;;;;0.66;100.00;96678.59;5124963;28;20600;-63
2021/12/08 03:02:32;;;;;;;66.07;10.30;;;;;;;0.56;100.00;96675.75;5123176;28;20615;-63
2021/12/08 03:04:58;;;;;;;28.73;7.70;;;;;;;0.67;100.00;96676.78;5121337;28;20605;-63
2021/12/08 03:07:25;;;;;;;29.37;7.30;;;;;;;0.46;100.00;96663.19;5121709;28;20617;-62
2021/12/08 03:09:53;;;;;;;56.23;10.53;;;;;;;0.37;100.00;96656.69;5124745;28;20588;-62
2021/12/08 03:12:28;;;;;;;38.80;6.97;;;;;;;0.44;100.00;96644.25;5124694;28;20604;-62
2021/12/08 03:14:54;;;;;;;31.57;7.97;;;;;;;0.42;100.00;96648.94;5112761;28;20638;-62
2021/12/08 03:17:21;;;;;;;16.10;6.80;;;;;;;0.45;100.00;96645.88;5112343;28;20646;-63
2021/12/08 03:19:48;;;;;;;28.23;8.97;;;;;;;0.54;100.00;96641.06;5124269;28;20592;-62
2021/12/08 03:22:14;;;;;;;40.00;8.40;;;;;;;0.71;100.00;96639.34;5124566;28;20684;-63
2021/12/08 03:24:44;;;;;;;34.60;8.00;;;;;;;0.65;100.00;96648.09;5121337;28;20614;-62
2021/12/08 03:27:15;;;;;;;34.63;7.63;;;;;;;0.53;100.00;96649.94;5120839;28;20612;-62
2021/12/08 03:29:49;;;;;;;48.27;8.70;;;;;;;0.48;100.00;96632.28;5123841;28;20639;-62
2021/12/08 03:32:25;;;;;;;45.07;8.27;;;;;;;0.46;100.00;96629.06;5124140;28;20597;-63
2021/12/08 03:34:52;;;;;;;40.53;8.20;;;;;;;0.47;100.00;96630.66;5119690;28;20660;-62
2021/12/08 03:37:22;;;;;;;21.20;8.47;;;;;;;0.40;100.00;96624.72;5120571;28;20656;-63
2021/12/08 03:39:50;;;;;;;31.63;8.63;;;;;;;0.32;100.00;96617.22;5112184;28;20664;-62
2021/12/08 03:42:20;;;;;;;41.33;10.07;;;;;;;0.23;100.00;96617.78;5112076;28;20626;-63
2021/12/08 03:44:47;;;;;;;39.73;8.63;;;;;;;0.50;100.00;96609.19;5112057;28;20620;-63
2021/12/08 03:47:16;;;;;;;25.33;8.10;;;;;;;0.36;100.00;96607.84;5120457;28;20600;-63
2021/12/08 03:49:45;;;;;;;34.73;8.10;;;;;;;0.36;100.00;96601.78;5131336;28;20615;-62
2021/12/08 03:52:12;;;;;;;55.00;8.67;;;;;;;0.39;100.00;96606.59;5123786;28;20611;-62
2021/12/08 03:54:39;;;;;;;78.90;11.00;;;;;;;0.42;100.00;96606.13;5121244;28;20622;-62
2021/12/08 03:57:07;;;;;;;26.53;7.80;;;;;;;0.63;100.00;96617.84;5120206;28;20651;-63
2021/12/08 03:59:35;;;;;;;68.33;8.97;;;;;;;0.73;100.00;96632.00;5121750;28;20631;-63
2021/12/08 04:02:02;;;;;;;37.33;7.67;;;;;;;0.62;100.00;96624.94;5123592;28;20605;-62
2021/12/08 04:04:30;;;;;;;50.33;9.13;;;;;;;0.66;100.00;96620.81;5122500;28;20613;-62
2021/12/08 04:07:02;;;;;;;31.63;8.40;;;;;;;0.76;100.00;96623.66;5120073;28;21201;-62
2021/12/08 04:09:33;;;;;;;32.53;9.17;;;;;;;0.86;100.00;96637.00;5121003;28;20633;-63
2021/12/08 04:12:01;;;;;;;22.43;7.20;;;;;;;0.88;100.00;96649.91;5123562;28;20612;-62
2021/12/08 04:14:31;;;;;;;91.23;10.90;;;;;;;0.80;100.00;96639.75;5122230;28;20615;-62
2021/12/08 04:17:02;;;;;;;35.13;7.57;;;;;;;0.72;100.00;96637.47;5119964;28;20637;-62
2021/12/08 04:19:29;;;;;;;41.50;7.70;;;;;;;0.74;100.00;96630.19;5128706;28;20638;-63
2021/12/08 04:21:59;;;;;;;56.87;7.60;;;;;;;0.79;100.00;96631.06;5123368;28;20592;-64
2021/12/08 04:24:26;;;;;;;51.97;8.17;;;;;;;1.10;100.00;96640.34;5122380;28;20604;-62
2021/12/08 04:26:55;;;;;;;25.27;6.33;;;;;;;1.47;100.00;96646.84;5119788;28;20601;-63
2021/12/08 04:29:25;;;;;;;55.60;7.90;;;;;;;1.46;100.00;96639.16;5119587;28;20613;-63
2021/12/08 04:31:53;;;;;;;27.10;5.10;;;;;;;1.57;100.00;96636.50;5123203;28;20584;-63
2021/12/08 04:34:26;;;;;;;38.30;7.20;;;;;;;1.51;100.00;96631.38;5122511;28;20605;-63
2021/12/08 04:36:54;;;;;;;79.57;9.43;;;;;;;1.48;100.00;96637.13;5111090;28;20648;-63
2021/12/08 04:39:26;;;;;;;50.17;6.27;;;;;;;1.29;100.00;96619.94;5110886;28;20593;-62
2021/12/08 04:42:00;;;;;;;44.93;7.03;;;;;;;1.12;100.00;96633.03;5111072;28;21412;-63
2021/12/08 04:44:33;;;;;;;45.47;7.77;;;;;;;1.12;100.00;96640.09;5110364;28;20627;-62
2021/12/08 04:47:22;;;;;;;21.43;5.07;;;;;;;1.51;100.00;96657.69;5110921;28;20617;-62
2021/12/08 04:52:54;;;;;;;27.63;5.67;;;;;;;1.68;100.00;96663.78;5103515;28;20625;-63
2021/12/08 05:01:20;;;;;;;46.93;6.73;;;;;;;1.42;100.00;96644.13;5110400;28;20672;-63
2021/12/08 05:04:08;;;;;;;51.60;7.70;;;;;;;1.51;100.00;96653.22;5100963;28;20621;-63
2021/12/08 05:06:51;;;;;;;35.90;5.90;;;;;;;1.69;100.00;96668.00;5110295;28;20624;-62
2021/12/08 05:09:23;;;;;;;30.90;6.37;;;;;;;1.86;100.00;96674.09;5108647;28;20632;-63
2021/12/08 05:11:58;;;;;;;60.63;7.57;;;;;;;1.94;100.00;96684.25;5118865;28;20694;-63
2021/12/08 05:14:29;;;;;;;77.97;8.57;;;;;;;1.89;100.00;96681.50;5119058;28;20711;-63
2021/12/08 05:16:59;;;;;;;53.50;6.77;;;;;;;1.35;100.00;96674.22;5122136;28;20665;-63
2021/12/08 05:19:31;;;;;;;31.67;6.30;;;;;;;1.66;100.00;96668.47;5121943;28;20596;-63
2021/12/08 05:22:03;;;;;;;36.50;6.63;;;;;;;1.63;100.00;96659.25;5122245;28;20622;-62
2021/12/08 05:24:37;;;;;;;39.37;7.23;;;;;;;1.72;100.00;96653.56;5120528;28;20597;-63
2021/12/08 05:27:07;;;;;;;25.77;6.10;;;;;;;1.66;100.00;96660.59;5118337;28;20700;-63
2021/12/08 05:29:37;;;;;;;35.97;7.63;;;;;;;1.68;100.00;96662.97;5119950;28;20609;-62
2021/12/08 05:32:06;;;;;;;41.17;6.23;;;;;;;1.59;100.00;96671.25;5121998;28;20593;-63
2021/12/08 05:34:38;;;;;;;67.83;7.97;;;;;;;1.40;100.00;96677.75;5119855;28;20694;-63
2021/12/08 05:37:07;;;;;;;22.27;5.00;;;;;;;1.24;100.00;96675.06;5118271;28;20671;-63
2021/12/08 05:39:35;;;;;;;60.03;7.53;;;;;;;1.25;100.00;96671.41;5119834;28;20606;-63
2021/12/08 05:42:05;;;;;;;53.07;7.90;;;;;;;1.34;100.00;96677.88;5121625;28;20600;-63
2021/12/08 05:44:32;;;;;;;68.07;8.13;;;;;;;1.31;100.00;96673.09;5120017;28;20596;-63
2021/12/08 05:47:04;;;;;;;25.73;5.70;;;;;;;1.58;100.00;96682.00;5118223;28;20609;-62
2021/12/08 05:49:30;;;;;;;81.30;10.10;;;;;;;1.70;100.00;96681.97;5126996;28;20604;-64
2021/12/08 05:51:57;;;;;;;14.63;4.30;;;;;;;1.60;100.00;96679.97;5121814;28;20589;-64
2021/12/08 05:54:30;;;;;;;34.23;5.93;;;;;;;1.63;100.00;96682.13;5121117;28;20601;-65
2021/12/08 05:56:58;;;;;;;34.63;7.20;;;;;;;1.52;100.00;96677.69;5099704;28;20641;-63
2021/12/08 05:59:25;;;;;;;61.70;9.40;;;;;;;1.57;100.00;96665.44;5118340;28;20612;-63
2021/12/08 06:01:58;;;;;;;13.93;4.90;;;;;;;1.37;100.00;96672.16;5121784;28;20607;-63
2021/12/08 06:04:27;;;;;;;63.43;7.67;;;;;;;1.27;100.00;96666.72;5120763;28;20600;-64
2021/12/08 06:06:55;;;;;;;38.77;6.50;;;;;;;1.12;100.00;96663.78;5118229;28;20639;-62
2021/12/08 06:09:24;;;;;;;16.23;5.20;;;;;;;0.97;100.00;96674.78;5118206;28;20627;-63
2021/12/08 06:11:53;;;;;;;21.60;5.13;;;;;;;1.02;100.00;96670.44;5121661;28;20593;-62
2021/12/08 06:14:24;;;;;;;23.93;6.83;;;;;;;1.15;100.00;96669.38;5121467;28;20687;-63
2021/12/08 06:16:53;;;;;;;47.70;5.77;;;;;;;1.21;100.00;96665.03;5117850;28;20601;-63
2021/12/08 06:19:21;;;;;;;51.80;6.83;;;;;;;1.23;100.00;96665.59;5125336;28;20604;-63
2021/12/08 06:21:48;;;;;;;59.20;7.47;;;;;;;1.07;100.00;96651.34;5117836;28;20601;-62
2021/12/08 06:24:18;;;;;;;34.67;6.23;;;;;;;1.17;100.00;96651.53;5117681;28;20600;-62
2021/12/08 06:26:46;;;;;;;41.33;6.53;;;;;;;1.07;100.00;96657.41;5121088;28;20588;-62
2021/12/08 06:29:17;;;;;;;41.77;7.07;;;;;;;0.96;100.00;96645.06;5121194;28;20638;-62
2021/12/08 06:31:45;;;;;;;34.27;7.37;;;;;;;0.92;100.00;96643.16;5118010;28;20637;-62
2021/12/08 06:34:12;;;;;;;43.30;6.17;;;;;;;0.85;100.00;96648.53;5117407;28;21258;-63
2021/12/08 06:36:42;;;;;;;54.97;6.90;;;;;;;0.92;100.00;96638.72;5120025;28;20628;-62
2021/12/08 06:39:13;;;;;;;48.77;8.30;;;;;;;0.90;100.00;96640.75;5121044;28;21240;-62
2021/12/08 06:41:43;;;;;;;38.37;7.03;;;;;;;0.81;100.00;96643.97;5118200;28;20634;-63
2021/12/08 06:44:12;;;;;;;64.13;8.30;;;;;;;0.84;100.00;96646.94;5117594;28;20593;-62
2021/12/08 06:46:42;;;;;;;56.90;7.37;;;;;;;1.17;100.00;96650.75;5120026;28;20605;-62
2021/12/08 06:49:11;;;;;;;49.37;6.70;;;;;;;1.26;100.00;96658.03;5121057;28;20626;-62
2021/12/08 06:51:41;;;;;;;91.00;9.27;;;;;;;1.41;100.00;96663.56;5120852;28;20651;-62
2021/12/08 06:54:12;;;;;;;38.27;7.43;;;;;;;1.53;100.00;96659.06;5120821;28;20626;-64
2021/12/08 06:56:42;;;;;;;40.83;7.20;;;;;;;1.42;100.00;96665.16;5118620;28;20622;-63
2021/12/08 06:59:11;;;;;;;106.63;10.10;;;;;;;1.43;100.00;96658.06;5117317;28;20649;-64
2021/12/08 07:01:48;;;;;;;51.43;9.03;;;;;;;1.39;100.00;96662.97;5119762;28;20631;-62
2021/12/08 07:04:29;;;;;;;36.00;6.27;;;;;;;1.37;100.00;96665.06;5120927;28;20653;-63
2021/12/08 07:07:02;;;;;;;31.17;5.67;;;;;;;1.31;100.00;96657.31;5117404;28;20609;-63
2021/12/08 07:09:33;;;;;;;53.13;6.87;;;;;;;1.27;100.00;96648.31;5121928;28;20593;-64
2021/12/08 07:12:08;;;;;;;28.53;6.10;;;;;;;1.28;100.00;96648.06;5124608;28;20653;-63
2021/12/08 07:14:36;;;;;;;66.83;9.10;;;;;;;1.19;100.00;96651.28;5122397;28;20592;-62
2021/12/08 07:17:08;;;;;;;62.93;7.70;;;;;;;1.15;100.00;96648.31;5121113;28;20598;-62
2021/12/08 07:19:45;;;;;;;96.80;11.07;;;;;;;1.27;100.00;96649.09;5130407;28;20709;-63
2021/12/08 07:22:24;;;;;;;40.17;7.60;;;;;;;1.22;100.00;96656.09;5124453;28;20617;-64
2021/12/08 07:24:53;;;;;;;26.60;5.83;;;;;;;1.14;100.00;96651.22;5120916;28;20608;-62
2021/12/08 07:27:22;;;;;;;28.50;6.53;;;;;;;1.12;100.00;96655.88;5120804;28;20627;-63
2021/12/08 07:29:50;;;;;;;60.07;6.77;;;;;;;1.02;100.00;96643.38;5120868;28;20625;-63
2021/12/08 07:32:24;;;;;;;64.07;8.30;;;;;;;1.04;100.00;96642.09;5120659;28;20642;-63
2021/12/08 07:34:53;;;;;;;34.73;6.60;;;;;;;1.05;100.00;96646.31;5120362;28;20635;-62
2021/12/08 07:37:25;;;;;;;84.13;8.87;;;;;;;1.06;100.00;96637.38;5120635;28;20601;-62
2021/12/08 07:39:58;;;;;;;14.30;4.60;;;;;;;1.04;100.00;96631.59;5120453;28;20631;-63
2021/12/08 07:42:28;;;;;;;67.53;6.87;;;;;;;0.98;100.00;96632.50;5120788;28;20606;-63
2021/12/08 07:44:59;;;;;;;94.40;8.97;;;;;;;1.22;100.00;96632.41;5124014;28;20608;-63
2021/12/08 07:47:30;;;;;;;27.47;5.10;;;;;;;1.11;100.00;96630.66;5122924;28;20603;-64
2021/12/08 07:49:59;;;;;;;31.30;6.50;;;;;;;1.06;100.00;96626.88;5125103;28;20600;-63
2021/12/08 07:52:29;;;;;;;95.93;8.73;;;;;;;1.08;100.00;96627.44;5122947;28;20596;-63
2021/12/08 07:54:57;;;;;;;32.53;8.93;;;;;;;1.04;100.00;96628.16;5120369;28;20585;-62
2021/12/08 07:57:30;;;;;;;50.80;8.23;;;;;;;1.13;100.00;96639.88;5120356;28;20675;-62
2021/12/08 08:00:04;;;;;;;60.93;7.07;;;;;;;1.13;100.00;96639.09;5123678;28;21059;-62
2021/12/08 08:02:32;;;;;;;54.67;7.07;;;;;;;1.04;100.00;96649.19;5122302;28;20604;-62
2021/12/08 08:05:04;;;;;;;32.17;6.73;;;;;;;1.17;100.00;96640.22;5120066;28;20624;-63
2021/12/08 08:07:31;;;;;;;86.63;10.00;;;;;;;1.14;100.00;96643.31;5121111;28;20601;-62
2021/12/08 08:10:01;;;;;;;30.67;6.37;;;;;;;1.10;100.00;96643.00;5123547;28;20608;-63
2021/12/08 08:12:31;;;;;;;62.37;9.00;;;;;;;1.13;100.00;96639.09;5122343;28;20613;-62
2021/12/08 08:15:04;;;;;;;35.53;6.73;;;;;;;1.14;100.00;96635.44;5119920;28;21369;-63
2021/12/08 08:17:40;;;;;;;31.30;7.50;;;;;;;1.16;100.00;96633.34;5120885;28;20597;-63
2021/12/08 08:20:11;;;;;;;57.93;7.97;;;;;;;1.13;100.00;96625.94;5130497;28;20600;-64
2021/12/08 08:22:38;;;;;;;46.33;5.00;;;;;;;1.09;100.00;96634.28;5120830;28;20641;-63
2021/12/08 08:25:09;;;;;;;15.10;4.83;;;;;;;1.09;100.00;96633.50;5119618;28;20609;-64
2021/12/08 08:27:36;;;;;;;48.47;6.63;;;;;;;1.17;100.00;96622.63;5121397;28;20590;-62
2021/12/08 08:30:08;;;;;;;50.50;7.67;;;;;;;1.19;100.00;96627.63;5122990;28;20596;-63
2021/12/08 08:32:39;;;;;;;33.97;7.60;;;;;;;1.26;100.00;96633.56;5121022;28;20596;-63
2021/12/08 08:35:12;;;;;;;37.23;6.30;;;;;;;1.26;100.00;96625.66;5119080;28;20637;-62
2021/12/08 08:37:39;;;;;;;53.50;7.17;;;;;;;1.50;100.00;96624.53;5121699;28;20606;-63
2021/12/08 08:40:11;;;;;;;42.63;6.23;;;;;;;1.57;100.00;96630.44;5122766;28;20706;-63
2021/12/08 08:42:40;;;;;;;72.43;7.60;;;;;;;1.69;100.00;96636.44;5120295;28;20637;-62
2021/12/08 08:45:12;;;;;;;45.60;6.57;;;;;;;1.67;100.00;96641.16;5119139;28;20605;-62
2021/12/08 08:47:43;;;;;;;30.50;6.83;;;;;;;1.69;100.00;96633.81;5121327;28;20689;-62
2021/12/08 08:50:13;;;;;;;77.27;8.40;;;;;;;1.68;100.00;96637.47;5130684;28;20604;-63
2021/12/08 08:52:43;;;;;;;90.47;6.93;;;;;;;1.53;100.00;96626.69;5119989;28;20634;-63
2021/12/08 08:55:14;;;;;;;41.50;7.27;;;;;;;1.40;100.00;96624.34;5119022;28;20604;-62
2021/12/08 08:57:44;;;;;;;58.43;6.60;;;;;;;1.53;100.00;96624.03;5121635;28;20623;-62
2021/12/08 09:00:15;;;;;;;47.67;6.70;;;;;;;1.44;100.00;96621.00;5122415;28;20600;-63
2021/12/08 09:02:45;;;;;;;58.87;7.60;;;;;;;1.50;100.00;96620.06;5119463;28;20605;-63
2021/12/08 09:05:15;;;;;;;25.03;5.03;;;;;;;1.34;100.00;96614.75;5096171;28;20593;-63
2021/12/08 09:07:46;;;;;;;78.87;9.40;;;;;;;1.36;100.00;96607.44;5118721;28;20609;-62
2021/12/08 09:10:18;;;;;;;38.90;6.73;;;;;;;1.25;100.00;96613.53;5118858;28;20651;-63
2021/12/08 09:12:50;;;;;;;72.13;8.87;;;;;;;1.34;100.00;96614.75;5122055;28;20619;-62
2021/12/08 09:15:20;;;;;;;23.87;3.93;;;;;;;1.24;100.00;96619.84;5122125;28;20597;-63
2021/12/08 09:17:53;;;;;;;72.43;7.03;;;;;;;1.16;100.00;96615.75;5110147;28;20609;-63
2021/12/08 09:20:27;;;;;;;48.03;6.03;;;;;;;1.17;100.00;96609.47;5126100;28;20611;-62
2021/12/08 09:22:58;;;;;;;34.47;6.67;;;;;;;1.17;100.00;96611.31;5118529;28;20670;-62
2021/12/08 09:25:30;;;;;;;41.70;6.47;;;;;;;1.14;100.00;96603.88;5118602;28;20623;-62
2021/12/08 09:28:00;;;;;;;32.40;6.70;;;;;;;1.22;100.00;96600.88;5121792;28;20604;-62
2021/12/08 09:30:33;;;;;;;24.90;5.67;;;;;;;1.35;100.00;96598.75;5120780;28;20615;-62
2021/12/08 09:33:05;;;;;;;36.97;6.53;;;;;;;1.36;100.00;96599.56;5117883;28;20621;-63
2021/12/08 09:35:35;;;;;;;57.83;8.63;;;;;;;1.34;100.00;96591.09;5119402;28;20659;-63
2021/12/08 09:38:06;;;;;;;67.60;7.47;;;;;;;1.46;100.00;96589.19;5121914;28;20629;-63
2021/12/08 09:40:37;;;;;;;62.80;8.10;;;;;;;1.33;100.00;96581.63;5120055;28;20604;-65
2021/12/08 09:43:08;;;;;;;26.13;6.27;;;;;;;1.32;100.00;96580.03;5118598;28;21239;-63
2021/12/08 09:45:39;;;;;;;30.13;6.97;;;;;;;1.36;100.00;96571.41;5120069;28;20699;-63
2021/12/08 09:48:08;;;;;;;29.27;6.10;;;;;;;1.38;100.00;96564.09;5121660;28;20600;-63
2021/12/08 09:50:36;;;;;;;54.13;8.80;;;;;;;1.40;100.00;96563.84;5127441;28;20604;-63
2021/12/08 09:53:03;;;;;;;80.23;9.43;;;;;;;1.35;100.00;96561.13;5118314;28;20623;-63
2021/12/08 09:55:30;;;;;;;31.43;6.80;;;;;;;1.37;100.00;96566.94;5119226;28;20627;-64
2021/12/08 09:57:57;;;;;;;29.03;5.10;;;;;;;1.28;100.00;96558.66;5121701;28;20596;-63
2021/12/08 10:00:29;;;;;;;43.17;7.07;;;;;;;1.21;100.00;96558.00;5121186;28;20653;-63
2021/12/08 10:02:59;;;;;;;41.27;7.63;;;;;;;1.22;100.00;96550.91;5117925;28;20605;-63
2021/12/08 10:05:29;;;;;;;48.90;7.57;;;;;;;1.32;100.00;96537.94;5118397;28;20644;-63
2021/12/08 10:07:57;;;;;;;60.60;8.00;;;;;;;1.38;100.00;96531.72;5121333;28;20665;-62
2021/12/08 10:10:24;;;;;;;35.60;6.90;;;;;;;1.35;100.00;96537.47;5120927;28;21257;-63
2021/12/08 10:12:52;;;;;;;32.60;7.67;;;;;;;1.43;100.00;96537.06;5118004;28;20609;-64
2021/12/08 10:15:21;;;;;;;50.20;7.77;;;;;;;1.41;100.00;96531.25;5117769;28;20662;-63
2021/12/08 10:17:49;;;;;;;45.13;7.53;;;;;;;1.54;100.00;96533.56;5117716;28;21399;-63
2021/12/08 10:20:18;;;;;;;33.77;6.47;;;;;;;1.47;100.00;96538.19;5125232;28;20609;-63
2021/12/08 10:22:49;;;;;;;73.60;7.87;;;;;;;1.49;100.00;96530.84;5117776;28;20697;-63
2021/12/08 10:25:18;;;;;;;21.27;5.37;;;;;;;1.41;100.00;96524.16;5117758;28;20601;-63
2021/12/08 10:28:06;;;;;;;69.93;8.10;;;;;;;1.49;100.00;96522.94;5120884;28;20634;-62
2021/12/08 10:30:37;;;;;;;44.07;7.20;;;;;;;1.42;100.00;96524.97;5119312;28;20615;-62
2021/12/08 10:33:10;;;;;;;41.17;6.30;;;;;;;1.44;100.00;96515.00;5117582;28;20670;-62
2021/12/08 10:35:45;;;;;;;72.60;10.57;;;;;;;1.51;100.00;96515.63;5119271;28;20621;-63
2021/12/08 10:38:15;;;;;;;34.70;6.10;;;;;;;1.59;100.00;96518.66;5121295;28;20595;-63
2021/12/08 10:40:57;;;;;;;61.77;7.23;;;;;;;1.56;100.00;96518.34;5118246;28;20640;-62
2021/12/08 10:43:24;;;;;;;46.33;6.87;;;;;;;1.58;100.00;96505.72;5120059;28;20696;-63
2021/12/08 10:46:03;;;;;;;12.10;4.80;;;;;;;1.57;100.00;96504.16;5125200;28;21026;-62
2021/12/08 10:48:36;;;;;;;66.97;9.07;;;;;;;1.56;100.00;96503.34;5124260;28;20628;-62
2021/12/08 10:56:37;;;;;;;54.53;6.63;;;;;;;1.83;100.00;96479.78;5122844;28;20601;-63
2021/12/08 10:59:03;;;;;;;39.50;7.13;;;;;;;1.78;100.00;96477.09;5125091;28;20596;-62
2021/12/08 11:01:30;;;;;;;33.33;6.10;;;;;;;1.86;100.00;96481.94;5123557;28;20596;-63
2021/12/08 11:04:00;;;;;;;16.83;6.00;;;;;;;1.99;100.00;96489.50;5121505;28;21170;-63
2021/12/08 11:06:30;;;;;;;32.30;6.83;;;;;;;2.04;100.00;96488.78;5121766;28;21468;-63
2021/12/08 11:08:58;;;;;;;48.43;7.23;;;;;;;1.97;100.00;96486.31;5124454;28;20643;-63
2021/12/08 11:11:29;;;;;;;80.50;8.53;;;;;;;2.05;100.00;96480.63;5124071;28;20834;-63
2021/12/08 11:13:57;;;;;;;39.80;6.83;;;;;;;2.28;100.00;96476.16;5121094;28;20635;-63
2021/12/08 11:16:29;;;;;;;38.43;6.97;;;;;;;2.35;100.00;96474.16;5121127;28;20609;-63
2021/12/08 11:19:00;;;;;;;33.83;7.60;;;;;;;2.28;100.00;96470.91;5124450;28;20607;-63
2021/12/08 11:21:35;;;;;;;83.23;9.63;;;;;;;2.17;100.00;96468.13;5124237;28;20639;-62
2021/12/08 11:24:05;;;;;;;36.83;7.43;;;;;;;2.11;100.00;96476.22;5124377;28;20683;-62
2021/12/08 11:26:37;;;;;;;97.23;10.17;;;;;;;2.07;100.00;96468.00;5122682;28;20778;-62
2021/12/08 11:29:07;;;;;;;51.00;6.97;;;;;;;1.96;100.00;96468.13;5120663;28;20652;-63
2021/12/08 11:31:40;;;;;;;40.77;6.70;;;;;;;1.98;100.00;96469.47;5122319;28;20589;-63
2021/12/08 11:34:16;;;;;;;48.07;6.13;;;;;;;1.94;100.00;96467.56;5124169;28;20583;-62
2021/12/08 11:36:45;;;;;;;23.43;4.30;;;;;;;1.94;100.00;96463.13;5121266;28;20670;-62
2021/12/08 11:39:15;;;;;;;36.67;8.20;;;;;;;2.00;100.00;96454.25;5120651;28;20616;-63
2021/12/08 11:41:45;;;;;;;58.13;7.40;;;;;;;2.11;100.00;96455.16;5123151;28;20635;-62
2021/12/08 11:44:15;;;;;;;94.27;8.20;;;;;;;1.98;100.00;96455.53;5123904;28;20617;-63
2021/12/08 11:46:48;;;;;;;74.97;9.53;;;;;;;2.08;100.00;96455.63;5121034;28;20596;-63
2021/12/08 11:49:15;;;;;;;48.83;6.60;;;;;;;2.04;100.00;96465.09;5127356;28;20623;-63
2021/12/08 11:51:56;;;;;;;71.53;7.90;;;;;;;2.23;100.00;96461.09;5123813;28;20662;-63
2021/12/08 11:54:30;;;;;;;26.60;5.23;;;;;;;2.15;100.00;96456.25;5122798;28;20593;-63
2021/12/08 11:57:03;;;;;;;37.33;5.20;;;;;;;2.03;100.00;96448.47;5120313;28;20593;-63
2021/12/08 11:59:30;;;;;;;31.70;6.30;;;;;;;2.21;100.00;96436.84;5121101;28;20623;-63
2021/12/08 12:01:57;;;;;;;36.90;7.40;;;;;;;2.09;100.00;96436.19;5123568;28;20597;-62
2021/12/08 12:04:24;;;;;;;46.87;6.97;;;;;;;2.28;100.00;96426.13;5123091;28;20600;-63
2021/12/08 12:06:51;;;;;;;26.33;5.60;;;;;;;2.34;100.00;96425.13;5120071;28;20601;-63